Time;durP1;ratioP1;P1;durP2;ratioP2;P2;SDS_P1;SDS_P2;PMS_P1;PMS_P2;Temp;Humidity;BMP_temperature;BMP_pressure;BME280_temperature;BME280_humidity;BME280_pressure;Samples;Min_cycle;Max_cycle;Signal;HPM_P1;HPM_P2
2022/10/28 00:00:51;;;;;;;12.25;5.95;;;;;;;11.95;70.51;101573.50;4896618;29;20044;-72
2022/10/28 00:03:17;;;;;;;14.18;6.10;;;;;;;11.81;70.74;101571.28;4896898;29;20051;-72
2022/10/28 00:05:45;;;;;;;15.32;6.60;;;;;;;11.88;70.58;101581.28;4896964;29;20417;-71
2022/10/28 00:08:11;;;;;;;11.43;5.85;;;;;;;11.96;70.43;101580.56;4897455;29;20509;-71
2022/10/28 00:10:38;;;;;;;9.45;5.28;;;;;;;11.87;70.88;101579.63;4897612;29;20494;-71
2022/10/28 00:13:04;;;;;;;9.05;5.53;;;;;;;11.99;70.42;101579.41;4896989;29;20071;-72
2022/10/28 00:15:33;;;;;;;11.25;5.68;;;;;;;12.09;70.22;101583.75;4897139;29;20493;-71
2022/10/28 00:18:00;;;;;;;15.23;6.22;;;;;;;12.03;70.27;101591.56;4898142;29;20063;-72
2022/10/28 00:20:28;;;;;;;12.75;5.70;;;;;;;12.04;70.05;101588.75;4897216;29;20048;-71
2022/10/28 00:22:54;;;;;;;20.70;5.65;;;;;;;11.96;70.53;101583.25;4897168;29;20055;-70
2022/10/28 00:25:23;;;;;;;16.90;5.95;;;;;;;12.01;70.30;101591.72;4897270;29;20053;-72
2022/10/28 00:27:51;;;;;;;10.80;6.00;;;;;;;12.06;70.28;101593.97;4897551;29;20119;-71
2022/10/28 00:30:18;;;;;;;14.73;5.97;;;;;;;12.07;70.46;101579.50;4896941;29;20127;-71
2022/10/28 00:32:45;;;;;;;15.27;6.38;;;;;;;12.32;69.33;101583.38;4897130;29;20524;-72
2022/10/28 00:35:11;;;;;;;11.32;5.40;;;;;;;12.49;68.83;101581.69;4896775;29;20049;-70
2022/10/28 00:37:38;;;;;;;15.25;5.75;;;;;;;12.41;68.92;101591.34;4897379;29;20044;-71
2022/10/28 00:40:04;;;;;;;20.95;6.45;;;;;;;12.61;68.23;101589.38;4896513;29;20052;-72
2022/10/28 00:42:31;;;;;;;13.23;5.70;;;;;;;12.62;68.18;101590.22;4896343;29;20060;-72
2022/10/28 00:45:03;;;;;;;15.88;6.07;;;;;;;12.47;68.66;101584.53;4896988;29;20056;-72
2022/10/28 00:47:38;;;;;;;11.90;5.45;;;;;;;12.43;68.83;101571.53;4897372;29;20063;-72
2022/10/28 00:50:19;;;;;;;12.65;5.57;;;;;;;12.33;68.93;101569.75;4896831;29;20052;-71
2022/10/28 00:52:52;;;;;;;11.00;4.97;;;;;;;12.53;68.43;101562.41;4895919;29;20060;-72
2022/10/28 00:55:20;;;;;;;13.05;5.95;;;;;;;12.15;69.74;101563.50;4896627;29;20048;-71
2022/10/28 00:57:48;;;;;;;13.85;5.72;;;;;;;12.13;69.69;101560.09;4892451;29;20052;-71
2022/10/28 01:00:15;;;;;;;16.25;6.10;;;;;;;12.18;69.31;101568.56;4895864;29;20048;-72
2022/10/28 01:02:48;;;;;;;12.63;6.57;;;;;;;12.44;68.66;101571.38;4897643;29;20048;-72
2022/10/28 01:09:42;;;;;;;19.45;5.78;;;;;;;12.53;68.50;101564.25;4895430;29;20075;-71
2022/10/28 01:12:24;;;;;;;12.35;5.40;;;;;;;12.40;68.75;101570.00;4896349;29;20056;-71
2022/10/28 01:15:03;;;;;;;14.20;5.32;;;;;;;12.57;68.25;101571.84;4896933;29;20056;-71
2022/10/28 01:17:55;;;;;;;14.88;5.75;;;;;;;12.36;69.10;101564.06;4899581;29;20061;-72
2022/10/28 01:20:27;;;;;;;11.90;5.45;;;;;;;12.29;69.40;101564.81;4899499;29;20389;-72
2022/10/28 01:22:56;;;;;;;17.88;5.82;;;;;;;12.26;69.52;101565.97;4882940;29;20055;-72
2022/10/28 01:25:38;;;;;;;11.48;5.53;;;;;;;12.21;69.74;101559.34;4899548;29;20512;-72
2022/10/28 01:28:29;;;;;;;10.93;5.57;;;;;;;12.19;69.86;101554.13;4898409;29;20053;-70
2022/10/28 01:31:07;;;;;;;11.80;5.68;;;;;;;12.17;69.97;101551.59;4898958;29;20493;-70
2022/10/28 01:33:38;;;;;;;15.15;5.50;;;;;;;12.02;70.48;101555.75;4899300;29;20044;-71
2022/10/28 01:36:22;;;;;;;14.77;5.55;;;;;;;12.07;70.41;101552.59;4899033;29;20059;-70
2022/10/28 01:39:05;;;;;;;20.20;6.55;;;;;;;12.05;70.47;101550.09;4898792;29;20048;-71
2022/10/28 01:41:41;;;;;;;17.98;6.60;;;;;;;12.08;70.67;101535.50;4861170;29;20045;-71
2022/10/28 01:44:20;;;;;;;11.23;5.88;;;;;;;11.99;70.73;101544.44;4844707;29;20049;-69
2022/10/28 01:46:54;;;;;;;9.10;5.30;;;;;;;12.09;70.56;101531.81;4861815;29;20045;-71
2022/10/28 01:49:51;;;;;;;18.40;5.90;;;;;;;11.88;70.97;101540.97;4860065;29;20045;-70
2022/10/28 01:52:22;;;;;;;12.75;5.32;;;;;;;12.17;70.23;101545.34;4860941;29;20045;-69
2022/10/28 01:54:53;;;;;;;18.60;5.93;;;;;;;12.20;69.91;101539.66;4860460;29;20053;-70
2022/10/28 01:57:22;;;;;;;14.40;6.45;;;;;;;12.08;70.35;101532.81;4860946;29;20521;-69
2022/10/28 01:59:50;;;;;;;13.52;5.97;;;;;;;11.93;70.88;101527.06;4861445;29;20054;-70
2022/10/28 02:02:17;;;;;;;17.08;5.97;;;;;;;12.15;70.21;101523.97;4861501;29;20053;-69
2022/10/28 02:04:43;;;;;;;13.00;5.45;;;;;;;12.04;70.45;101526.88;4861040;29;20053;-68
2022/10/28 02:07:10;;;;;;;12.35;5.55;;;;;;;11.97;70.87;101522.22;4862111;29;20055;-71
2022/10/28 02:09:50;;;;;;;13.00;6.57;;;;;;;12.21;69.99;101519.84;4861581;29;20053;-71
2022/10/28 02:12:30;;;;;;;16.50;6.78;;;;;;;11.86;71.43;101524.16;4861814;29;20046;-70
2022/10/28 02:15:39;;;;;;;15.45;5.65;;;;;;;12.01;70.77;101515.59;4861426;29;20069;-71
2022/10/28 02:18:12;;;;;;;9.77;5.65;;;;;;;12.08;70.60;101516.66;4853585;29;20057;-71
2022/10/28 02:20:52;;;;;;;15.18;5.88;;;;;;;12.18;70.23;101522.84;4860442;29;20060;-70
2022/10/28 02:23:46;;;;;;;18.67;6.25;;;;;;;12.11;70.44;101527.13;4857904;29;20044;-71
2022/10/28 02:26:23;;;;;;;18.13;6.57;;;;;;;12.09;70.59;101523.72;4860201;29;20422;-71
2022/10/28 02:29:04;;;;;;;14.05;6.03;;;;;;;12.15;70.66;101523.13;4860964;29;20049;-71
2022/10/28 02:31:36;;;;;;;14.85;6.65;;;;;;;12.09;70.69;101521.88;4860072;29;20502;-71
2022/10/28 02:34:08;;;;;;;12.13;6.15;;;;;;;12.10;70.57;101528.94;4860485;29;20499;-71
2022/10/28 02:36:40;;;;;;;20.73;6.22;;;;;;;12.21;70.12;101533.31;4860536;29;20494;-71
2022/10/28 02:39:07;;;;;;;20.55;7.07;;;;;;;12.30;69.64;101531.53;4860531;29;20053;-70
2022/10/28 02:42:00;;;;;;;15.25;6.25;;;;;;;12.31;69.91;101517.91;4898674;29;20049;-71
2022/10/28 02:44:34;;;;;;;14.82;6.07;;;;;;;12.33;69.64;101523.16;4892557;29;20041;-71
2022/10/28 02:47:07;;;;;;;16.35;6.75;;;;;;;12.08;70.22;101516.66;4897594;29;20059;-71
2022/10/28 02:49:37;;;;;;;18.70;6.78;;;;;;;11.97;70.97;101512.34;4897663;29;20054;-71
2022/10/28 02:52:06;;;;;;;12.63;6.20;;;;;;;11.89;70.88;101507.69;4897732;29;20048;-71
2022/10/28 02:54:41;;;;;;;20.75;6.65;;;;;;;11.84;71.23;101512.69;4897665;29;20045;-71
2022/10/28 02:57:15;;;;;;;12.63;5.95;;;;;;;11.91;71.19;101519.16;4897305;29;20049;-71
2022/10/28 02:59:42;;;;;;;19.92;6.45;;;;;;;11.93;70.94;101527.06;4898188;29;20418;-71
2022/10/28 03:02:08;;;;;;;13.30;6.03;;;;;;;12.10;70.22;101526.25;4896731;29;20044;-71
2022/10/28 03:04:35;;;;;;;18.48;7.22;;;;;;;12.00;71.09;101530.00;4897674;29;20052;-72
2022/10/28 03:07:01;;;;;;;14.18;6.05;;;;;;;12.06;70.73;101524.88;4887627;29;20059;-70
2022/10/28 03:09:28;;;;;;;18.90;7.18;;;;;;;12.05;70.58;101523.19;4896430;29;20052;-70
2022/10/28 03:11:54;;;;;;;15.88;6.43;;;;;;;12.17;70.18;101522.00;4895955;29;20048;-70
2022/10/28 03:14:21;;;;;;;13.05;6.57;;;;;;;12.01;70.52;101515.59;4897371;29;20056;-71
2022/10/28 03:16:47;;;;;;;16.98;6.40;;;;;;;12.04;70.70;101516.13;4897931;29;20049;-71
2022/10/28 03:19:14;;;;;;;13.05;5.97;;;;;;;12.16;70.17;101514.06;4897842;29;20052;-71
2022/10/28 03:21:40;;;;;;;12.80;6.40;;;;;;;12.14;70.53;101513.34;4897037;29;20053;-71
2022/10/28 03:24:06;;;;;;;16.58;6.60;;;;;;;12.25;69.63;101512.31;4896951;29;20502;-69
2022/10/28 03:26:33;;;;;;;14.00;6.43;;;;;;;12.19;69.86;101512.91;4897354;29;20049;-70
2022/10/28 03:28:59;;;;;;;14.02;7.00;;;;;;;12.13;69.90;101509.81;4892033;29;20059;-71
2022/10/28 03:31:26;;;;;;;15.32;6.95;;;;;;;12.08;70.16;101512.13;4896055;29;20074;-68
2022/10/28 03:33:52;;;;;;;13.07;6.60;;;;;;;11.80;71.07;101505.09;4896773;29;20421;-71
2022/10/28 03:36:19;;;;;;;14.77;6.97;;;;;;;11.69;71.83;101511.50;4896163;29;20053;-68
2022/10/28 03:38:45;;;;;;;16.63;7.28;;;;;;;11.71;71.91;101519.41;4896984;29;20052;-71
2022/10/28 03:41:12;;;;;;;15.45;7.05;;;;;;;11.58;72.33;101523.22;4897058;29;20071;-70
2022/10/28 03:43:38;;;;;;;15.38;6.22;;;;;;;11.78;71.86;101520.50;4896660;29;20075;-70
2022/10/28 03:46:05;;;;;;;13.98;6.38;;;;;;;11.89;70.90;101529.22;4896167;29;20049;-70
2022/10/28 03:48:31;;;;;;;18.63;7.35;;;;;;;12.07;70.77;101533.78;4895413;29;20044;-71
2022/10/28 03:50:58;;;;;;;15.38;6.38;;;;;;;12.17;70.19;101537.25;4895328;29;20520;-71
2022/10/28 03:53:24;;;;;;;19.13;7.05;;;;;;;12.00;70.85;101521.94;4895817;29;20049;-71
2022/10/28 03:55:58;;;;;;;13.02;6.88;;;;;;;12.06;70.51;101518.66;4896247;29;20255;-70
2022/10/28 03:58:25;;;;;;;25.88;6.32;;;;;;;12.05;70.57;101520.50;4895730;29;20044;-72
2022/10/28 04:00:52;;;;;;;13.38;7.10;;;;;;;11.95;70.79;101510.78;4896067;29;20100;-70
2022/10/28 04:03:20;;;;;;;14.15;6.82;;;;;;;11.91;70.94;101503.03;4896259;29;20051;-68
2022/10/28 04:05:47;;;;;;;10.73;6.43;;;;;;;11.72;71.41;101500.44;4895674;29;20058;-71
2022/10/28 04:08:15;;;;;;;17.02;7.28;;;;;;;11.83;71.63;101499.38;4896319;29;20131;-72
2022/10/28 04:10:42;;;;;;;19.05;7.60;;;;;;;11.96;70.72;101501.72;4895921;29;20108;-69
2022/10/28 04:13:16;;;;;;;13.20;6.80;;;;;;;12.11;70.18;101506.47;4895860;29;20048;-71
2022/10/28 04:15:43;;;;;;;17.08;7.03;;;;;;;12.09;70.18;101512.97;4895136;29;20052;-70
2022/10/28 04:18:10;;;;;;;20.83;7.63;;;;;;;11.71;70.86;101509.50;4896071;29;20049;-70
2022/10/28 04:20:36;;;;;;;19.40;6.97;;;;;;;12.03;70.35;101516.25;4895792;29;20509;-70
2022/10/28 04:23:03;;;;;;;12.32;6.43;;;;;;;12.06;69.94;101518.66;4895902;29;20060;-70
2022/10/28 04:25:30;;;;;;;17.92;7.68;;;;;;;12.04;70.28;101520.66;4895873;29;20052;-71
2022/10/28 04:27:56;;;;;;;15.68;7.57;;;;;;;12.09;69.96;101504.91;4895599;29;20064;-71
2022/10/28 04:30:23;;;;;;;21.50;7.18;;;;;;;11.92;70.44;101495.81;4895713;29;20057;-70
2022/10/28 04:32:49;;;;;;;14.07;7.18;;;;;;;11.76;71.10;101496.47;4896489;29;20055;-70
2022/10/28 04:35:16;;;;;;;12.07;6.72;;;;;;;11.56;72.17;101492.13;4896216;29;20067;-70
2022/10/28 04:37:42;;;;;;;21.23;7.80;;;;;;;11.75;71.69;101491.22;4896064;29;20052;-70
2022/10/28 04:40:09;;;;;;;17.67;7.72;;;;;;;11.48;72.33;101500.06;4895557;29;20056;-71
2022/10/28 04:42:35;;;;;;;15.93;7.00;;;;;;;11.59;72.31;101497.22;4896173;29;20512;-71
2022/10/28 04:45:02;;;;;;;15.05;7.45;;;;;;;11.82;71.25;101495.84;4894505;29;20053;-71
2022/10/28 04:47:28;;;;;;;15.88;7.45;;;;;;;11.89;70.77;101490.72;4895326;29;20059;-70
2022/10/28 04:49:55;;;;;;;16.95;7.55;;;;;;;11.96;70.42;101494.50;4897881;29;20044;-71
2022/10/28 04:52:22;;;;;;;15.23;7.47;;;;;;;11.87;70.80;101493.56;4899656;29;20478;-71
2022/10/28 04:54:48;;;;;;;15.32;6.97;;;;;;;11.89;70.43;101491.56;4898716;29;20493;-71
2022/10/28 04:57:15;;;;;;;17.05;7.28;;;;;;;11.89;70.38;101488.88;4899158;29;20402;-70
2022/10/28 04:59:41;;;;;;;16.02;7.28;;;;;;;11.91;70.62;101488.75;4898649;29;20045;-71
2022/10/28 05:02:08;;;;;;;14.85;6.97;;;;;;;11.86;70.59;101493.72;4899412;29;20064;-71
2022/10/28 05:04:34;;;;;;;13.43;7.93;;;;;;;11.67;71.23;101497.34;4898547;29;20052;-70
2022/10/28 05:07:01;;;;;;;18.02;7.68;;;;;;;11.83;70.67;101489.50;4899305;29;20048;-71
2022/10/28 05:09:27;;;;;;;17.70;8.48;;;;;;;11.63;71.41;101479.81;4899444;29;20075;-69
2022/10/28 05:11:54;;;;;;;19.10;7.78;;;;;;;11.70;71.16;101486.31;4894722;29;20409;-70
2022/10/28 05:14:20;;;;;;;19.27;7.82;;;;;;;11.62;71.91;101494.22;4898540;29;20067;-70
2022/10/28 05:16:47;;;;;;;14.75;7.05;;;;;;;11.74;71.32;101495.75;4898757;29;20516;-71
2022/10/28 05:19:14;;;;;;;23.40;8.60;;;;;;;11.57;71.67;101491.97;4898598;29;20071;-72
2022/10/28 05:21:40;;;;;;;25.63;8.90;;;;;;;11.66;71.41;101495.66;4898462;29;20108;-70
2022/10/28 05:24:07;;;;;;;23.92;7.95;;;;;;;11.56;71.50;101479.53;4899080;29;20464;-72
2022/10/28 05:26:33;;;;;;;19.92;8.82;;;;;;;11.60;71.81;101475.56;4899270;29;20044;-71
2022/10/28 05:28:59;;;;;;;23.85;8.38;;;;;;;11.57;71.92;101481.22;4898659;29;20059;-70
2022/10/28 05:31:26;;;;;;;16.42;8.13;;;;;;;11.56;72.11;101481.41;4899136;29;20516;-71
2022/10/28 05:33:54;;;;;;;24.02;8.45;;;;;;;11.46;72.54;101476.91;4899126;29;20073;-69
2022/10/28 05:36:20;;;;;;;12.63;8.00;;;;;;;11.41;72.42;101476.50;4898306;29;20056;-70
2022/10/28 05:38:48;;;;;;;21.52;8.80;;;;;;;11.48;72.35;101481.25;4898000;29;20056;-70
2022/10/28 05:41:14;;;;;;;22.33;9.35;;;;;;;11.49;72.38;101481.13;4898254;29;20063;-71
2022/10/28 05:43:41;;;;;;;19.00;8.82;;;;;;;11.49;72.35;101472.22;4898048;29;20055;-69
2022/10/28 05:46:08;;;;;;;18.13;8.23;;;;;;;11.58;72.08;101471.31;4898255;29;20060;-70
2022/10/28 05:48:34;;;;;;;18.15;9.02;;;;;;;11.50;72.07;101473.91;4898507;29;20057;-72
2022/10/28 05:51:01;;;;;;;26.25;8.85;;;;;;;11.60;71.99;101474.72;4897822;29;20057;-70
2022/10/28 05:53:27;;;;;;;21.42;7.82;;;;;;;11.60;71.75;101464.81;4898754;29;20052;-71
2022/10/28 05:55:54;;;;;;;20.08;8.10;;;;;;;11.50;72.26;101480.13;4897773;29;20508;-71
2022/10/28 05:58:20;;;;;;;23.02;8.52;;;;;;;11.69;71.67;101473.88;4898197;29;20393;-70
2022/10/28 06:00:47;;;;;;;19.75;8.48;;;;;;;11.68;71.83;101473.00;4897870;29;20048;-72
2022/10/28 06:03:13;;;;;;;19.85;9.10;;;;;;;11.73;71.46;101480.63;4898087;29;20399;-71
2022/10/28 06:05:42;;;;;;;20.35;8.80;;;;;;;11.62;71.11;101470.91;4897426;29;20047;-72
2022/10/28 06:08:11;;;;;;;19.83;9.32;;;;;;;11.71;71.33;101466.47;4898062;29;20056;-72
2022/10/28 06:10:38;;;;;;;17.77;8.57;;;;;;;11.64;71.92;101465.34;4898090;29;20063;-70
2022/10/28 06:13:04;;;;;;;17.55;8.73;;;;;;;11.58;72.15;101465.94;4897245;29;20063;-70
2022/10/28 06:15:31;;;;;;;24.00;9.35;;;;;;;11.60;72.12;101466.66;4897712;29;20048;-70
2022/10/28 06:17:57;;;;;;;17.63;8.57;;;;;;;11.59;71.90;101463.13;4898601;29;20120;-71
2022/10/28 06:20:24;;;;;;;22.75;8.75;;;;;;;11.60;72.37;101472.03;4896830;29;20060;-71
2022/10/28 06:22:52;;;;;;;18.35;8.20;;;;;;;11.67;72.08;101465.94;4897111;29;20081;-71
2022/10/28 06:25:20;;;;;;;15.77;8.00;;;;;;;11.62;72.58;101456.59;4896968;29;20047;-70
2022/10/28 06:27:55;;;;;;;24.75;8.30;;;;;;;11.78;71.95;101456.81;4897769;29;20051;-71
2022/10/28 06:30:24;;;;;;;19.13;8.27;;;;;;;11.70;71.99;101454.06;4897768;29;20048;-72
2022/10/28 06:32:51;;;;;;;22.15;8.75;;;;;;;11.57;72.34;101459.72;4897447;29;20056;-72
2022/10/28 06:35:17;;;;;;;22.63;8.98;;;;;;;11.61;72.37;101455.75;4897705;29;20482;-72
2022/10/28 06:37:44;;;;;;;17.60;8.48;;;;;;;11.53;72.79;101452.13;4897158;29;20076;-72
2022/10/28 06:40:10;;;;;;;20.55;8.27;;;;;;;11.54;72.51;101445.75;4897073;29;20052;-71
2022/10/28 06:42:37;;;;;;;16.55;7.72;;;;;;;11.44;73.14;101449.31;4897491;29;20054;-70
2022/10/28 06:45:04;;;;;;;27.10;9.30;;;;;;;11.50;73.25;101436.28;4897235;29;20060;-73
2022/10/28 06:47:30;;;;;;;23.13;8.75;;;;;;;11.34;73.43;101450.34;4897306;29;20052;-72
2022/10/28 06:49:57;;;;;;;18.95;7.68;;;;;;;11.46;73.29;101452.72;4897526;29;20541;-72
2022/10/28 06:52:23;;;;;;;26.13;9.07;;;;;;;11.52;73.15;101456.66;4897089;29;20049;-73
2022/10/28 06:54:50;;;;;;;26.98;8.90;;;;;;;11.63;72.79;101456.47;4897351;29;20053;-71
2022/10/28 06:57:16;;;;;;;22.35;9.38;;;;;;;11.68;72.20;101456.03;4897242;29;20056;-72
2022/10/28 06:59:43;;;;;;;14.93;7.95;;;;;;;11.72;72.24;101462.78;4897298;29;20049;-70
2022/10/28 07:02:10;;;;;;;20.02;9.02;;;;;;;11.77;72.25;101462.38;4897077;29;20056;-72
2022/10/28 07:04:37;;;;;;;27.73;8.93;;;;;;;11.93;72.00;101467.91;4895977;29;20049;-70
2022/10/28 07:07:04;;;;;;;19.40;7.80;;;;;;;12.06;71.32;101463.00;4895626;29;20056;-71
2022/10/28 07:09:30;;;;;;;22.70;7.53;;;;;;;11.97;71.69;101479.22;4897205;29;20440;-72
2022/10/28 07:11:56;;;;;;;19.77;7.30;;;;;;;11.98;71.72;101471.00;4896605;29;20742;-71
2022/10/28 07:14:30;;;;;;;17.42;7.88;;;;;;;12.06;71.61;101470.25;4897216;29;20045;-72
2022/10/28 07:16:57;;;;;;;17.20;7.68;;;;;;;12.10;71.12;101467.09;4896713;29;20060;-72
2022/10/28 07:19:23;;;;;;;19.08;7.05;;;;;;;12.09;71.55;101460.03;4895450;29;20045;-71
2022/10/28 07:21:50;;;;;;;19.35;7.50;;;;;;;12.49;70.17;101474.03;4895637;29;20386;-72
2022/10/28 07:24:16;;;;;;;18.45;7.60;;;;;;;12.37;70.38;101478.78;4896516;29;20048;-71
2022/10/28 07:26:43;;;;;;;20.95;7.32;;;;;;;12.51;70.06;101474.72;4896793;29;20398;-72
2022/10/28 07:29:09;;;;;;;14.98;7.88;;;;;;;12.34;70.82;101482.63;4895752;29;20450;-71
2022/10/28 07:31:36;;;;;;;29.23;8.00;;;;;;;12.49;70.21;101477.59;4896131;29;20056;-72
2022/10/28 07:34:03;;;;;;;23.67;6.80;;;;;;;12.51;70.21;101472.88;4896570;29;20057;-67
2022/10/28 07:36:29;;;;;;;16.00;6.88;;;;;;;12.67;69.56;101463.25;4896853;29;20158;-72
2022/10/28 07:38:55;;;;;;;21.35;6.88;;;;;;;12.65;69.81;101458.00;4895624;29;20049;-73
2022/10/28 07:41:22;;;;;;;17.27;6.63;;;;;;;12.99;68.57;101454.59;4896144;29;20565;-71
2022/10/28 07:43:49;;;;;;;19.85;6.57;;;;;;;13.01;68.51;101449.91;4886718;29;20056;-72
2022/10/28 07:46:17;;;;;;;20.75;7.03;;;;;;;13.03;68.45;101459.50;4894983;29;20052;-71
2022/10/28 07:48:44;;;;;;;17.63;6.40;;;;;;;13.04;68.27;101457.66;4894740;29;20374;-72
2022/10/28 07:51:13;;;;;;;15.50;5.97;;;;;;;13.22;67.78;101461.16;4896090;29;20429;-72
2022/10/28 07:53:40;;;;;;;10.15;5.25;;;;;;;13.38;67.35;101464.94;4895789;29;20057;-72
2022/10/28 07:56:09;;;;;;;10.77;5.30;;;;;;;13.42;67.23;101444.72;4895440;29;20052;-70
2022/10/28 07:58:36;;;;;;;13.95;6.45;;;;;;;13.52;66.83;101449.00;4896292;29;20048;-73
2022/10/28 08:01:07;;;;;;;13.20;5.35;;;;;;;13.63;66.61;101453.28;4896609;29;20071;-72
2022/10/28 08:03:34;;;;;;;18.23;6.03;;;;;;;13.53;66.64;101450.69;4895709;29;20044;-68
2022/10/28 08:06:10;;;;;;;15.40;5.70;;;;;;;13.58;66.47;101455.59;4895585;29;20052;-71
2022/10/28 08:08:38;;;;;;;15.48;5.82;;;;;;;13.68;66.43;101460.88;4895398;29;20055;-70
2022/10/28 08:11:12;;;;;;;14.32;5.65;;;;;;;13.78;66.13;101459.75;4895652;29;20060;-70
2022/10/28 08:13:39;;;;;;;20.25;5.82;;;;;;;14.00;65.42;101465.53;4894928;29;20051;-73
2022/10/28 08:16:07;;;;;;;15.18;5.20;;;;;;;14.04;65.35;101469.59;4895765;29;20111;-72
2022/10/28 08:18:34;;;;;;;12.35;5.30;;;;;;;13.88;66.05;101483.06;4886245;29;20055;-71
2022/10/28 08:21:02;;;;;;;25.40;5.45;;;;;;;14.14;65.25;101473.00;4895392;29;20416;-71
2022/10/28 08:23:29;;;;;;;12.65;5.43;;;;;;;14.42;64.12;101475.41;4895768;29;20421;-73
2022/10/28 08:25:56;;;;;;;15.25;5.82;;;;;;;14.14;64.90;101458.66;4895711;29;20477;-70
2022/10/28 08:28:23;;;;;;;12.75;4.80;;;;;;;14.35;64.40;101466.28;4895861;29;20056;-71
2022/10/28 08:30:49;;;;;;;11.65;5.22;;;;;;;14.76;63.06;101473.41;4895080;29;20045;-69
2022/10/28 08:33:34;;;;;;;17.88;5.18;;;;;;;15.04;62.12;101481.16;4891261;29;20545;-75
2022/10/28 08:36:00;;;;;;;21.02;5.93;;;;;;;15.76;59.45;101485.72;4895824;29;20052;-72
2022/10/28 08:38:27;;;;;;;15.05;5.20;;;;;;;15.83;59.11;101474.00;4895577;29;20493;-71
2022/10/28 08:41:21;;;;;;;14.15;5.30;;;;;;;15.67;59.24;101477.66;4894883;29;20045;-70
2022/10/28 08:43:47;;;;;;;14.32;4.85;;;;;;;15.56;59.71;101460.91;4895206;29;20417;-71
2022/10/28 08:46:29;;;;;;;20.35;5.55;;;;;;;15.11;61.34;101457.84;4895522;29;20055;-71
2022/10/28 08:48:55;;;;;;;12.77;4.50;;;;;;;15.26;60.73;101455.28;4895130;29;20378;-73
2022/10/28 08:51:54;;;;;;;13.52;5.25;;;;;;;15.32;60.72;101453.72;4895833;29;20055;-70
2022/10/28 08:54:26;;;;;;;17.48;4.95;;;;;;;15.44;60.61;101464.00;4894965;29;20053;-73
2022/10/28 08:56:55;;;;;;;13.45;4.97;;;;;;;15.87;59.50;101452.84;4895811;29;20059;-72
2022/10/28 08:59:28;;;;;;;16.50;4.45;;;;;;;16.18;58.54;101463.66;4894732;29;20509;-73
2022/10/28 09:02:17;;;;;;;22.42;5.22;;;;;;;16.83;57.18;101471.31;4894694;29;20060;-71
2022/10/28 09:04:45;;;;;;;22.98;4.93;;;;;;;17.62;54.45;101470.00;4895147;29;20131;-72
2022/10/28 09:07:17;;;;;;;15.38;4.32;;;;;;;18.07;52.91;101472.44;4895881;29;20072;-70
2022/10/28 09:09:45;;;;;;;13.38;4.15;;;;;;;18.06;52.81;101478.06;4894783;29;20131;-69
2022/10/28 09:12:15;;;;;;;21.08;4.18;;;;;;;18.16;52.57;101473.19;4894240;29;20052;-72
2022/10/28 09:15:21;;;;;;;10.00;3.90;;;;;;;18.76;51.22;101460.19;4895149;29;20049;-73
2022/10/28 09:18:10;;;;;;;11.43;3.97;;;;;;;18.08;51.84;101457.00;4893102;29;20051;-71
2022/10/28 09:20:52;;;;;;;19.95;3.90;;;;;;;18.67;50.67;101454.03;4893350;29;20130;-71
2022/10/28 09:23:29;;;;;;;12.32;4.22;;;;;;;18.92;49.95;101446.31;4894147;29;20052;-73
2022/10/28 09:26:23;;;;;;;17.42;3.95;;;;;;;19.98;47.42;101450.69;4868924;29;20057;-71
2022/10/28 09:28:53;;;;;;;20.98;4.80;;;;;;;19.60;47.38;101446.53;4894874;29;20076;-71
2022/10/28 09:31:35;;;;;;;27.83;4.03;;;;;;;20.07;46.91;101449.44;4894961;29;20143;-71
2022/10/28 09:34:04;;;;;;;22.13;4.65;;;;;;;20.34;45.94;101451.16;4886148;29;20059;-72
2022/10/28 09:36:41;;;;;;;14.68;3.67;;;;;;;19.95;47.06;101452.75;4897509;29;20401;-71
2022/10/28 09:39:17;;;;;;;16.85;4.55;;;;;;;21.07;44.32;101448.47;4887985;29;20059;-70
2022/10/28 09:41:46;;;;;;;10.90;3.60;;;;;;;20.75;45.29;101452.06;4896844;29;20071;-70
2022/10/28 09:44:36;;;;;;;14.93;4.15;;;;;;;20.64;45.60;101450.81;4898317;29;20057;-72
2022/10/28 09:47:10;;;;;;;16.63;4.13;;;;;;;20.97;44.90;101444.50;4898371;29;20044;-70
2022/10/28 09:49:38;;;;;;;16.02;3.50;;;;;;;20.92;45.63;101448.69;4897690;29;20055;-70
2022/10/28 09:52:10;;;;;;;16.95;4.00;;;;;;;20.28;46.52;101440.25;4898513;29;20053;-71
2022/10/28 09:54:47;;;;;;;15.77;3.90;;;;;;;20.55;45.90;101441.16;4896916;29;20178;-70
2022/10/28 09:57:14;;;;;;;16.05;4.18;;;;;;;20.98;44.95;101436.09;4894841;29;20060;-71
2022/10/28 09:59:43;;;;;;;15.10;3.58;;;;;;;21.23;45.01;101444.47;4896927;29;20052;-70
2022/10/28 10:02:25;;;;;;;21.80;3.63;;;;;;;20.86;44.97;101424.16;4895243;29;20063;-71
2022/10/28 10:04:56;;;;;;;14.15;4.18;;;;;;;20.28;46.77;101423.91;4896286;29;20076;-70
2022/10/28 10:07:39;;;;;;;23.77;3.87;;;;;;;19.80;47.78;101424.03;4883847;29;20101;-71
2022/10/28 10:10:22;;;;;;;19.20;4.03;;;;;;;20.30;46.83;101425.38;4877452;29;20049;-69
2022/10/28 10:12:50;;;;;;;19.70;4.10;;;;;;;20.17;47.13;101428.09;4877499;29;20517;-72
2022/10/28 10:15:29;;;;;;;12.50;4.13;;;;;;;20.58;46.26;101433.41;4877177;29;20049;-72
2022/10/28 10:18:00;;;;;;;12.23;3.85;;;;;;;20.75;46.12;101431.09;4878537;29;20128;-72
2022/10/28 10:20:27;;;;;;;9.75;3.70;;;;;;;20.63;47.00;101422.72;4878036;29;20098;-71
2022/10/28 10:22:54;;;;;;;13.45;3.60;;;;;;;20.83;46.02;101417.22;4877478;29;20045;-71
2022/10/28 10:25:28;;;;;;;16.17;3.90;;;;;;;20.85;45.81;101419.75;4877789;29;20053;-70
2022/10/28 10:27:58;;;;;;;20.92;3.67;;;;;;;21.06;45.55;101415.94;4878103;29;20045;-69
2022/10/28 10:30:38;;;;;;;16.33;3.85;;;;;;;20.75;46.37;101414.72;4877289;29;20056;-70
2022/10/28 10:33:11;;;;;;;12.50;3.75;;;;;;;21.14;45.60;101413.84;4878885;29;20045;-70
2022/10/28 10:35:37;;;;;;;15.00;3.85;;;;;;;20.72;45.98;101403.41;4877891;29;20052;-70
2022/10/28 10:38:05;;;;;;;12.98;3.30;;;;;;;20.94;45.70;101401.25;4876564;29;20060;-70
2022/10/28 10:40:52;;;;;;;11.13;3.05;;;;;;;21.34;44.71;101399.31;4882682;29;20095;-71
2022/10/28 10:43:32;;;;;;;15.48;3.90;;;;;;;21.41;44.03;101391.94;4896205;29;20049;-71
2022/10/28 10:46:04;;;;;;;15.50;4.00;;;;;;;21.27;44.25;101391.16;4895378;29;20044;-70
2022/10/28 10:48:35;;;;;;;10.60;3.65;;;;;;;21.36;44.20;101394.50;4894476;29;20132;-70
2022/10/28 10:51:08;;;;;;;16.80;3.50;;;;;;;21.08;44.37;101390.13;4895750;29;20048;-70
2022/10/28 10:53:36;;;;;;;15.27;2.95;;;;;;;21.25;44.25;101386.94;4894717;29;20048;-71
2022/10/28 10:56:07;;;;;;;11.50;3.80;;;;;;;21.51;43.62;101380.56;4896704;29;20049;-70
2022/10/28 10:58:38;;;;;;;14.50;3.07;;;;;;;21.47;44.01;101377.44;4895275;29;20060;-70
2022/10/28 11:01:06;;;;;;;;;;;;;;;21.61;43.68;101375.47;4895410;29;20056;-69
2022/10/28 11:03:49;;;;;;;15.18;3.28;;;;;;;21.25;44.22;101376.91;4895281;29;19931;-71
2022/10/28 11:06:40;;;;;;;15.48;3.10;;;;;;;21.23;44.05;101367.25;4895957;29;20508;-72
2022/10/28 11:09:21;;;;;;;18.85;3.40;;;;;;;21.69;43.30;101368.91;4891239;29;20055;-71
2022/10/28 11:11:47;;;;;;;18.10;3.42;;;;;;;21.90;42.95;101363.13;4895933;29;20493;-69
2022/10/28 11:14:14;;;;;;;11.45;3.13;;;;;;;21.95;43.71;101368.78;4895678;29;20060;-69
2022/10/28 11:16:46;;;;;;;16.67;3.92;;;;;;;22.22;42.19;101360.38;4896277;29;20429;-70
2022/10/28 11:19:43;;;;;;;24.27;3.80;;;;;;;22.42;42.32;101362.97;4895312;29;20044;-71
2022/10/28 11:22:40;;;;;;;19.00;4.07;;;;;;;22.65;41.21;101365.09;4894756;29;20052;-72
2022/10/28 11:25:39;;;;;;;14.13;3.30;;;;;;;23.06;41.04;101360.91;4895499;29;20053;-71
2022/10/28 11:28:27;;;;;;;20.25;4.25;;;;;;;23.18;40.12;101354.44;4895638;29;20417;-71
2022/10/28 11:31:02;;;;;;;13.75;4.00;;;;;;;23.25;40.03;101366.16;4895411;29;20048;-71
2022/10/28 11:33:46;;;;;;;20.30;3.65;;;;;;;24.54;37.00;101362.19;4895511;29;20057;-70
2022/10/28 11:36:15;;;;;;;19.13;4.05;;;;;;;23.78;37.61;101359.19;4887426;29;20045;-72
2022/10/28 11:39:16;;;;;;;16.65;3.80;;;;;;;24.35;36.52;101358.69;4871366;29;20041;-69